Time;durP1;ratioP1;P1;durP2;ratioP2;P2;SDS_P1;SDS_P2;PMS_P1;PMS_P2;Temp;Humidity;BMP_temperature;BMP_pressure;BME280_temperature;BME280_humidity;BME280_pressure;Samples;Min_cycle;Max_cycle;Signal;HPM_P1;HPM_P2
2022/01/09 00:01:41;;;;;;;24.43;9.50;;;;;;;-2.12;100.00;97497.91;4805528;29;20039;-62
2022/01/09 00:04:06;;;;;;;23.47;9.73;;;;;;;-2.11;100.00;97486.47;4804538;29;20031;-62
2022/01/09 00:06:32;;;;;;;21.97;9.37;;;;;;;-2.12;100.00;97484.00;4804483;29;20030;-62
2022/01/09 00:08:58;;;;;;;20.30;9.23;;;;;;;-2.17;100.00;97470.56;4804232;29;20035;-62
2022/01/09 00:11:26;;;;;;;23.67;9.37;;;;;;;-2.12;100.00;97466.50;4804298;29;20046;-63
2022/01/09 00:13:56;;;;;;;20.85;10.02;;;;;;;-2.14;100.00;97460.63;4805531;29;20489;-62
2022/01/09 00:16:23;;;;;;;21.38;9.82;;;;;;;-2.00;100.00;97459.19;4818689;29;20073;-62
2022/01/09 00:18:50;;;;;;;24.83;11.48;;;;;;;-1.73;100.00;97458.13;4823655;29;20725;-62
2022/01/09 00:21:17;;;;;;;23.88;10.82;;;;;;;-1.72;100.00;97454.50;4822221;29;20033;-62
2022/01/09 00:23:44;;;;;;;19.52;9.40;;;;;;;-1.60;100.00;97454.03;4823549;29;20114;-62
2022/01/09 00:26:11;;;;;;;20.13;9.32;;;;;;;-1.53;100.00;97443.75;4823395;29;20485;-62
2022/01/09 00:28:37;;;;;;;18.30;9.48;;;;;;;-1.47;100.00;97438.69;4823420;29;20036;-62
2022/01/09 00:31:03;;;;;;;18.20;9.10;;;;;;;-1.41;100.00;97446.88;4823340;29;20038;-63
2022/01/09 00:33:29;;;;;;;18.97;9.57;;;;;;;-1.50;100.00;97444.22;4823282;29;20105;-62
2022/01/09 00:35:54;;;;;;;20.17;8.88;;;;;;;-1.40;100.00;97438.88;4823458;29;20480;-62
2022/01/09 00:38:20;;;;;;;23.43;9.63;;;;;;;-1.35;100.00;97438.34;4823289;29;20034;-62
2022/01/09 00:40:46;;;;;;;19.87;9.13;;;;;;;-1.43;100.00;97431.31;4823150;29;20030;-62
2022/01/09 00:43:12;;;;;;;19.60;8.77;;;;;;;-1.32;100.00;97435.41;4823296;29;20042;-62
2022/01/09 00:45:40;;;;;;;18.02;9.43;;;;;;;-1.32;100.00;97420.50;4823194;29;20467;-62
2022/01/09 00:48:06;;;;;;;19.33;8.82;;;;;;;-1.20;100.00;97413.16;4822926;29;20050;-62
2022/01/09 00:50:33;;;;;;;19.83;8.88;;;;;;;-1.21;100.00;97401.03;4823078;29;20042;-62
2022/01/09 00:52:59;;;;;;;16.17;8.50;;;;;;;-1.26;100.00;97400.69;4823097;29;20027;-62
2022/01/09 00:55:25;;;;;;;18.48;8.65;;;;;;;-1.37;100.00;97399.22;4823136;29;20073;-62
2022/01/09 00:57:50;;;;;;;18.37;8.53;;;;;;;-1.47;100.00;97385.47;4822009;29;20062;-62
2022/01/09 01:00:16;;;;;;;15.13;7.23;;;;;;;-1.20;100.00;97379.91;4823203;29;20081;-62
2022/01/09 01:02:42;;;;;;;16.97;8.63;;;;;;;-1.07;100.00;97366.28;4822216;29;20105;-63
2022/01/09 01:05:09;;;;;;;17.02;8.10;;;;;;;-1.00;100.00;97358.56;4823060;29;20554;-62
2022/01/09 01:07:34;;;;;;;15.88;7.57;;;;;;;-1.08;100.00;97350.72;4822922;29;20042;-62
2022/01/09 01:10:01;;;;;;;15.13;7.87;;;;;;;-1.16;100.00;97355.00;4822929;29;20053;-62
2022/01/09 01:12:29;;;;;;;17.67;7.30;;;;;;;-1.21;100.00;97352.06;4822773;29;20038;-62
2022/01/09 01:14:55;;;;;;;14.70;7.25;;;;;;;-1.35;100.00;97355.34;4823069;29;20066;-62
2022/01/09 01:17:23;;;;;;;17.25;8.27;;;;;;;-1.39;100.00;97345.38;4822882;29;20038;-63
2022/01/09 01:19:48;;;;;;;16.75;7.35;;;;;;;-1.46;100.00;97342.56;4821569;29;20041;-63
2022/01/09 01:22:15;;;;;;;14.40;7.10;;;;;;;-1.51;100.00;97343.09;4821638;29;20034;-62
2022/01/09 01:24:41;;;;;;;15.27;7.28;;;;;;;-1.56;100.00;97334.88;4822773;29;20366;-62
2022/01/09 01:27:08;;;;;;;13.23;6.72;;;;;;;-1.60;100.00;97340.59;4822747;29;20045;-62
2022/01/09 01:29:35;;;;;;;13.40;6.57;;;;;;;-1.59;100.00;97327.34;4822840;29;20026;-62
2022/01/09 01:32:00;;;;;;;15.60;7.28;;;;;;;-1.64;100.00;97326.22;4820796;29;20111;-62
2022/01/09 01:34:26;;;;;;;15.43;7.07;;;;;;;-1.64;100.00;97313.94;4822708;29;20552;-62
2022/01/09 01:36:52;;;;;;;16.03;7.57;;;;;;;-1.64;100.00;97313.13;4822624;29;20043;-62
2022/01/09 01:39:17;;;;;;;16.23;7.60;;;;;;;-1.50;100.00;97312.47;4806254;29;20026;-62
2022/01/09 01:41:43;;;;;;;14.47;6.90;;;;;;;-1.43;100.00;97295.09;4822369;29;20413;-62
2022/01/09 01:44:10;;;;;;;16.70;7.47;;;;;;;-1.50;100.00;97286.28;4822504;29;20109;-62
2022/01/09 01:46:36;;;;;;;13.52;6.75;;;;;;;-1.46;100.00;97287.56;4822400;29;20040;-62
2022/01/09 01:49:03;;;;;;;15.65;6.82;;;;;;;-1.52;100.00;97278.59;4822176;29;20059;-62
2022/01/09 01:51:29;;;;;;;15.43;7.57;;;;;;;-1.61;100.00;97263.03;4822348;29;20042;-62
2022/01/09 01:53:56;;;;;;;15.65;7.32;;;;;;;-1.64;100.00;97258.97;4822594;29;20477;-62
2022/01/09 01:56:23;;;;;;;13.50;6.35;;;;;;;-1.66;100.00;97250.44;4822453;29;20038;-62
2022/01/09 01:58:50;;;;;;;13.90;6.07;;;;;;;-1.60;100.00;97241.91;4822351;29;20034;-62
2022/01/09 02:01:16;;;;;;;13.52;6.38;;;;;;;-1.46;100.00;97240.41;4822294;29;20034;-62
2022/01/09 02:03:42;;;;;;;17.02;6.75;;;;;;;-1.40;100.00;97229.28;4822374;29;20537;-62
2022/01/09 02:06:07;;;;;;;14.23;6.60;;;;;;;-1.67;100.00;97227.03;4836284;29;20038;-62
2022/01/09 02:08:34;;;;;;;12.53;6.00;;;;;;;-1.69;100.00;97216.72;4822250;29;20034;-61
2022/01/09 02:11:00;;;;;;;11.35;4.90;;;;;;;-1.52;100.00;97213.09;4822209;29;20042;-60
2022/01/09 02:13:25;;;;;;;7.10;3.90;;;;;;;-1.43;100.00;97216.50;4822797;29;20426;-60
2022/01/09 02:15:56;;;;;;;9.13;3.73;;;;;;;-1.08;100.00;97215.25;4825597;29;20035;-60
2022/01/09 02:18:22;;;;;;;7.82;3.97;;;;;;;-1.16;100.00;97218.72;4824689;29;20506;-61
2022/01/09 02:20:49;;;;;;;6.53;3.30;;;;;;;-1.11;100.00;97223.44;4825378;29;20075;-61
2022/01/09 02:23:17;;;;;;;7.85;3.70;;;;;;;-1.18;100.00;97217.25;4825408;29;20397;-61
2022/01/09 02:25:44;;;;;;;5.75;3.00;;;;;;;-1.15;100.00;97212.47;4825672;29;20062;-61
2022/01/09 02:28:11;;;;;;;6.25;2.95;;;;;;;-1.13;100.00;97197.38;4825241;29;20065;-60
2022/01/09 02:30:37;;;;;;;6.18;3.30;;;;;;;-1.18;100.00;97199.72;4825158;29;20125;-61
2022/01/09 02:33:05;;;;;;;6.68;3.47;;;;;;;-1.31;100.00;97196.00;4825247;29;20049;-60
2022/01/09 02:35:32;;;;;;;6.63;3.20;;;;;;;-1.44;100.00;97182.63;4825169;29;20161;-60
2022/01/09 02:37:57;;;;;;;7.13;3.60;;;;;;;-1.48;100.00;97182.94;4825237;29;20034;-61
2022/01/09 02:40:23;;;;;;;8.57;3.73;;;;;;;-1.59;100.00;97178.06;4823773;29;20041;-61
2022/01/09 02:42:51;;;;;;;7.93;3.43;;;;;;;-1.72;100.00;97172.53;4824995;29;20080;-60
2022/01/09 02:45:23;;;;;;;6.78;2.95;;;;;;;-1.40;100.00;97169.03;4824998;29;20282;-60
2022/01/09 02:47:50;;;;;;;5.43;2.60;;;;;;;-1.33;100.00;97163.91;4824685;29;20278;-61
2022/01/09 02:50:40;;;;;;;8.85;3.20;;;;;;;-1.47;100.00;97150.53;4824909;29;20061;-60
2022/01/09 02:53:12;;;;;;;7.07;3.10;;;;;;;-1.53;100.00;97151.22;4824588;29;20513;-60
2022/01/09 02:55:38;;;;;;;6.07;2.70;;;;;;;-1.61;100.00;97146.00;4824832;29;20035;-60
2022/01/09 02:58:04;;;;;;;7.13;3.30;;;;;;;-1.61;100.00;97142.56;4824713;29;20038;-60
2022/01/09 03:00:32;;;;;;;7.53;3.17;;;;;;;-1.65;100.00;97136.03;4824784;29;20393;-62
2022/01/09 03:02:58;;;;;;;7.50;3.58;;;;;;;-1.92;100.00;97137.25;4824667;29;20545;-61
2022/01/09 03:05:25;;;;;;;5.10;2.70;;;;;;;-1.70;100.00;97133.91;4825029;29;20122;-61
2022/01/09 03:07:51;;;;;;;7.15;3.20;;;;;;;-1.61;100.00;97134.69;4838573;29;20030;-61
2022/01/09 03:10:18;;;;;;;5.30;2.72;;;;;;;-1.55;100.00;97124.38;4824652;29;20098;-61
2022/01/09 03:12:44;;;;;;;6.25;2.70;;;;;;;-1.59;100.00;97119.63;4824828;29;20038;-61
2022/01/09 03:15:11;;;;;;;4.22;2.40;;;;;;;-1.66;100.00;97123.94;4824662;29;20047;-62
2022/01/09 03:17:38;;;;;;;5.85;2.40;;;;;;;-1.63;100.00;97126.22;4824710;29;20086;-61
2022/01/09 03:20:06;;;;;;;6.93;4.45;;;;;;;-1.62;100.00;97117.38;4824559;29;20050;-61
2022/01/09 03:22:31;;;;;;;7.80;4.82;;;;;;;-1.64;100.00;97114.94;4824877;29;20023;-61
2022/01/09 03:24:57;;;;;;;7.37;4.90;;;;;;;-1.69;100.00;97106.75;4823909;29;20603;-61
2022/01/09 03:27:23;;;;;;;10.27;5.90;;;;;;;-1.74;100.00;97103.03;4822051;29;20065;-61
2022/01/09 03:29:48;;;;;;;8.87;4.90;;;;;;;-1.75;100.00;97101.38;4806067;29;20035;-61
2022/01/09 03:32:14;;;;;;;6.33;3.47;;;;;;;-1.71;100.00;97102.66;4805089;29;20041;-61
2022/01/09 03:34:40;;;;;;;6.90;3.50;;;;;;;-1.71;100.00;97093.00;4806235;29;20106;-61
2022/01/09 03:37:06;;;;;;;5.23;2.87;;;;;;;-1.83;100.00;97094.34;4806114;29;20553;-61
2022/01/09 03:39:32;;;;;;;5.38;2.60;;;;;;;-1.71;100.00;97094.81;4806004;29;20033;-61
2022/01/09 03:41:59;;;;;;;6.00;2.47;;;;;;;-1.68;100.00;97094.47;4806001;29;20039;-61
2022/01/09 03:44:26;;;;;;;5.60;2.53;;;;;;;-1.71;100.00;97095.63;4805952;29;20058;-61
2022/01/09 03:46:52;;;;;;;6.13;2.85;;;;;;;-1.70;100.00;97096.44;4805969;29;20039;-61
2022/01/09 03:49:17;;;;;;;5.28;2.63;;;;;;;-1.69;100.00;97096.28;4805791;29;20055;-61
2022/01/09 03:51:45;;;;;;;5.43;2.50;;;;;;;-1.58;100.00;97095.91;4805767;29;20038;-61
2022/01/09 03:54:11;;;;;;;6.22;2.72;;;;;;;-1.55;100.00;97098.19;4805831;29;20043;-61
2022/01/09 03:56:36;;;;;;;7.10;2.72;;;;;;;-1.53;100.00;97090.16;4819607;29;20042;-61
2022/01/09 03:59:02;;;;;;;4.90;2.53;;;;;;;-1.52;100.00;97092.63;4805791;29;20035;-61
2022/01/09 04:01:28;;;;;;;4.90;2.30;;;;;;;-1.43;100.00;97090.78;4805750;29;20035;-61
2022/01/09 04:03:53;;;;;;;6.43;3.13;;;;;;;-1.46;100.00;97094.53;4805586;29;20042;-61
2022/01/09 04:06:19;;;;;;;5.40;2.73;;;;;;;-1.36;100.00;97086.47;4805753;29;20139;-61
2022/01/09 04:08:45;;;;;;;5.70;3.03;;;;;;;-1.27;100.00;97079.41;4805533;29;20383;-61
2022/01/09 04:11:15;;;;;;;4.73;2.80;;;;;;;-1.30;100.00;97084.97;4805372;29;20072;-61
2022/01/09 04:13:41;;;;;;;6.55;2.97;;;;;;;-1.24;100.00;97097.38;4805528;29;20026;-61
2022/01/09 04:16:06;;;;;;;5.53;2.67;;;;;;;-1.13;100.00;97096.97;4805514;29;20143;-61
2022/01/09 04:18:32;;;;;;;6.20;2.30;;;;;;;-1.03;100.00;97096.75;4805558;29;20054;-61
2022/01/09 04:20:57;;;;;;;4.57;2.47;;;;;;;-0.97;100.00;97091.66;4805328;29;20035;-61
2022/01/09 04:23:24;;;;;;;5.00;2.50;;;;;;;-1.12;100.00;97090.75;4805429;29;20042;-61
2022/01/09 04:25:50;;;;;;;5.07;2.60;;;;;;;-0.99;100.00;97091.00;4805402;29;20066;-61
2022/01/09 04:28:16;;;;;;;5.47;2.63;;;;;;;-0.89;100.00;97085.53;4804231;29;20054;-61
2022/01/09 04:30:42;;;;;;;5.33;3.30;;;;;;;-0.88;100.00;97079.28;4805157;29;20038;-61
2022/01/09 04:33:11;;;;;;;5.03;3.00;;;;;;;-0.93;100.00;97079.03;4805236;29;20117;-61
2022/01/09 04:35:38;;;;;;;5.60;3.10;;;;;;;-0.89;100.00;97080.28;4805251;29;20046;-61
2022/01/09 04:38:05;;;;;;;5.35;2.83;;;;;;;-0.89;100.00;97078.47;4805038;29;20122;-61
2022/01/09 04:40:31;;;;;;;4.70;2.30;;;;;;;-0.89;100.00;97068.00;4805064;29;20034;-61
2022/01/09 04:42:59;;;;;;;4.60;2.33;;;;;;;-0.94;100.00;97053.78;4805108;29;20451;-61
2022/01/09 04:45:27;;;;;;;4.57;2.30;;;;;;;-0.88;100.00;97063.56;4805115;29;20072;-61
2022/01/09 04:47:55;;;;;;;4.05;2.13;;;;;;;-0.81;100.00;97054.03;4804759;29;20055;-61
2022/01/09 04:50:25;;;;;;;4.40;1.92;;;;;;;-0.90;100.00;97048.00;4803498;29;20039;-61
2022/01/09 04:52:57;;;;;;;4.40;2.00;;;;;;;-0.79;100.00;97049.38;4804975;29;20173;-61
2022/01/09 04:55:23;;;;;;;4.70;2.00;;;;;;;-0.69;100.00;97042.09;4804858;29;20069;-61
2022/01/09 04:57:48;;;;;;;4.17;2.10;;;;;;;-0.69;100.00;97046.56;4804949;29;20050;-62
2022/01/09 05:00:14;;;;;;;4.70;1.90;;;;;;;-0.47;100.00;97059.63;4804766;29;20035;-61
2022/01/09 05:02:40;;;;;;;3.70;1.73;;;;;;;-0.41;100.00;97061.53;4803624;29;20034;-61
2022/01/09 05:05:06;;;;;;;3.80;1.70;;;;;;;-0.38;100.00;97079.56;4804803;29;20034;-61
2022/01/09 05:07:32;;;;;;;3.35;1.80;;;;;;;-0.35;100.00;97081.00;4804579;29;20030;-61
2022/01/09 05:09:58;;;;;;;3.63;2.00;;;;;;;-0.35;100.00;97083.63;4804376;29;20041;-61
2022/01/09 05:12:23;;;;;;;3.00;1.60;;;;;;;-0.23;100.00;97087.44;4804605;29;20589;-61
2022/01/09 05:14:49;;;;;;;4.53;1.70;;;;;;;-0.24;100.00;97106.81;4804495;29;20065;-61
2022/01/09 05:17:14;;;;;;;3.47;1.80;;;;;;;-0.43;100.00;97149.28;4804723;29;20478;-61
2022/01/09 05:19:41;;;;;;;4.17;2.10;;;;;;;-0.29;100.00;97143.28;4804314;29;20088;-61
2022/01/09 05:22:08;;;;;;;4.13;2.40;;;;;;;-0.20;100.00;97121.19;4804313;29;20073;-61
2022/01/09 05:24:35;;;;;;;3.42;1.95;;;;;;;-0.23;100.00;97129.41;4803363;29;20035;-61
2022/01/09 05:27:02;;;;;;;3.22;1.83;;;;;;;-0.16;100.00;97161.03;4804342;29;20489;-62
2022/01/09 05:29:27;;;;;;;5.27;3.40;;;;;;;-0.02;100.00;97165.53;4804335;29;20068;-61
2022/01/09 05:31:53;;;;;;;5.10;2.90;;;;;;;0.02;100.00;97156.28;4804167;29;20270;-61
2022/01/09 05:34:18;;;;;;;4.43;2.20;;;;;;;0.03;100.00;97144.78;4804219;29;20035;-61
2022/01/09 05:36:44;;;;;;;4.30;2.30;;;;;;;0.07;100.00;97156.56;4804255;29;20030;-61
2022/01/09 05:39:10;;;;;;;4.63;2.17;;;;;;;0.10;100.00;97164.09;4804281;29;20026;-61
2022/01/09 05:41:36;;;;;;;5.47;2.47;;;;;;;0.10;100.00;97148.34;4802994;29;20057;-62
2022/01/09 05:44:02;;;;;;;4.82;2.70;;;;;;;0.15;100.00;97150.41;4804112;29;20035;-61
2022/01/09 05:46:27;;;;;;;3.87;2.23;;;;;;;0.16;100.00;97147.59;4804184;29;20041;-62
2022/01/09 05:48:53;;;;;;;4.70;2.80;;;;;;;0.24;100.00;97144.06;4805181;29;20047;-61
2022/01/09 05:51:19;;;;;;;4.80;2.43;;;;;;;0.05;100.00;97147.22;4807853;29;20085;-61
2022/01/09 05:53:44;;;;;;;5.83;2.63;;;;;;;0.12;100.00;97143.69;4807906;29;20085;-61
2022/01/09 05:56:10;;;;;;;5.00;2.60;;;;;;;0.09;100.00;97128.31;4807818;29;20122;-61
2022/01/09 05:58:36;;;;;;;4.00;2.40;;;;;;;-0.09;100.00;97130.44;4807823;29;20034;-61
2022/01/09 06:01:03;;;;;;;4.57;2.60;;;;;;;-0.16;100.00;97126.91;4808054;29;20413;-61
2022/01/09 06:03:29;;;;;;;5.17;2.50;;;;;;;-0.18;100.00;97123.66;4807694;29;20689;-61
2022/01/09 06:05:55;;;;;;;6.10;2.80;;;;;;;-0.13;100.00;97127.38;4819210;29;20317;-61
2022/01/09 06:08:21;;;;;;;4.67;2.23;;;;;;;-0.14;100.00;97123.13;4825669;29;20146;-61
2022/01/09 06:10:46;;;;;;;4.60;2.70;;;;;;;-0.05;100.00;97115.97;4825663;29;20472;-61
2022/01/09 06:13:12;;;;;;;5.20;2.80;;;;;;;-0.07;100.00;97107.47;4825860;29;20041;-61
2022/01/09 06:15:37;;;;;;;5.20;2.50;;;;;;;-0.06;100.00;97102.03;4825582;29;20106;-62
2022/01/09 06:18:03;;;;;;;4.80;2.77;;;;;;;-0.09;100.00;97098.94;4825659;29;20042;-61
2022/01/09 06:20:28;;;;;;;4.70;2.70;;;;;;;-0.11;100.00;97086.00;4825440;29;20022;-61
2022/01/09 06:22:54;;;;;;;4.87;2.90;;;;;;;-0.08;100.00;97069.91;4825413;29;20046;-61
2022/01/09 06:25:21;;;;;;;5.23;2.57;;;;;;;-0.07;100.00;97068.91;4825363;29;20091;-61
2022/01/09 06:27:47;;;;;;;6.38;3.17;;;;;;;0.06;100.00;97067.47;4825366;29;20481;-61
2022/01/09 06:30:13;;;;;;;4.83;2.90;;;;;;;0.13;100.00;97068.34;4825104;29;20083;-60
2022/01/09 06:32:38;;;;;;;5.23;2.40;;;;;;;0.25;100.00;97064.28;4825133;29;20030;-63
2022/01/09 06:35:06;;;;;;;4.70;2.10;;;;;;;0.28;100.00;97074.44;4825165;29;20354;-60
2022/01/09 06:37:32;;;;;;;4.33;2.10;;;;;;;0.34;100.00;97064.03;4825149;29;20114;-60
2022/01/09 06:39:57;;;;;;;4.80;2.30;;;;;;;0.35;100.00;97057.75;4824961;29;20352;-60
2022/01/09 06:42:23;;;;;;;8.60;2.70;;;;;;;0.15;100.00;97059.31;4824970;29;20048;-60
2022/01/09 06:44:48;;;;;;;4.93;2.43;;;;;;;0.30;100.00;97065.38;4824852;29;20049;-60
2022/01/09 06:47:14;;;;;;;3.93;2.37;;;;;;;0.33;100.00;97054.50;4825053;29;20049;-60
2022/01/09 06:49:40;;;;;;;4.60;2.73;;;;;;;0.33;100.00;97074.72;4824567;29;20058;-60
2022/01/09 06:52:06;;;;;;;5.57;2.80;;;;;;;0.34;100.00;97069.28;4808736;29;20034;-60
2022/01/09 06:54:32;;;;;;;8.30;3.00;;;;;;;0.22;100.00;97076.00;4824962;29;20278;-60
2022/01/09 06:56:58;;;;;;;5.00;2.67;;;;;;;0.18;100.00;97085.22;4824718;29;20285;-60
2022/01/09 06:59:23;;;;;;;6.17;3.20;;;;;;;0.26;100.00;97076.41;4824571;29;20393;-60
2022/01/09 07:01:50;;;;;;;6.00;2.90;;;;;;;0.30;100.00;97075.06;4823912;29;20034;-60
2022/01/09 07:04:16;;;;;;;4.17;2.40;;;;;;;0.20;100.00;97099.00;4825015;29;20031;-60
2022/01/09 07:06:41;;;;;;;4.90;2.53;;;;;;;0.25;100.00;97080.84;4824657;29;20640;-60
2022/01/09 07:09:07;;;;;;;5.20;2.27;;;;;;;0.32;100.00;97079.16;4824544;29;20034;-60
2022/01/09 07:11:32;;;;;;;5.27;2.80;;;;;;;0.25;100.00;97091.38;4824566;29;20030;-60
2022/01/09 07:13:58;;;;;;;5.43;3.03;;;;;;;0.09;100.00;97096.81;4824534;29;20042;-60
2022/01/09 07:16:24;;;;;;;6.07;4.00;;;;;;;0.02;100.00;97101.13;4824573;29;20113;-60
2022/01/09 07:18:49;;;;;;;5.77;3.40;;;;;;;0.20;100.00;97103.44;4824387;29;20026;-60
2022/01/09 07:21:15;;;;;;;5.20;3.33;;;;;;;0.27;100.00;97109.56;4824425;29;20044;-60
2022/01/09 07:23:40;;;;;;;7.17;3.97;;;;;;;0.19;100.00;97120.19;4824459;29;20030;-60
2022/01/09 07:26:06;;;;;;;7.90;4.00;;;;;;;0.28;100.00;97119.09;4824324;29;20034;-61
2022/01/09 07:28:31;;;;;;;6.77;3.67;;;;;;;0.27;100.00;97128.78;4824222;29;20493;-60
2022/01/09 07:30:58;;;;;;;5.83;3.20;;;;;;;0.14;100.00;97157.47;4824302;29;20041;-60
2022/01/09 07:33:24;;;;;;;7.50;3.93;;;;;;;0.27;100.00;97173.44;4824499;29;20034;-60
2022/01/09 07:35:49;;;;;;;9.70;5.90;;;;;;;0.40;100.00;97183.31;4811758;29;20283;-60
2022/01/09 07:38:15;;;;;;;8.50;4.43;;;;;;;0.39;100.00;97175.63;4795934;29;20027;-60
2022/01/09 07:40:40;;;;;;;8.90;5.17;;;;;;;0.46;100.00;97166.84;4800833;29;20030;-61
2022/01/09 07:43:06;;;;;;;13.80;5.10;;;;;;;0.63;100.00;97165.66;4814173;29;20091;-61
2022/01/09 07:45:33;;;;;;;12.23;6.73;;;;;;;0.67;100.00;97177.44;4814817;29;20451;-61
2022/01/09 07:48:00;;;;;;;10.70;6.50;;;;;;;0.81;100.00;97153.97;4815037;29;20065;-61
2022/01/09 07:50:27;;;;;;;11.13;5.33;;;;;;;0.71;100.00;97167.38;4814109;29;20297;-61
2022/01/09 07:52:54;;;;;;;11.57;5.50;;;;;;;0.68;100.00;97154.59;4815543;29;20274;-61
2022/01/09 07:55:20;;;;;;;11.20;5.83;;;;;;;0.84;100.00;97145.69;4816947;29;20410;-61
2022/01/09 07:57:47;;;;;;;10.10;6.27;;;;;;;0.84;100.00;97143.06;4803111;29;20275;-61
2022/01/09 08:00:13;;;;;;;11.47;6.03;;;;;;;0.96;100.00;97128.44;4793405;29;20279;-61
2022/01/09 08:02:40;;;;;;;11.20;5.97;;;;;;;0.63;100.00;97136.75;4791328;29;20307;-61
2022/01/09 08:05:06;;;;;;;10.73;5.67;;;;;;;0.83;100.00;97136.97;4795915;29;20287;-62
2022/01/09 08:07:32;;;;;;;10.13;5.70;;;;;;;0.77;100.00;97147.44;4794537;29;20749;-61
2022/01/09 08:09:57;;;;;;;10.07;5.47;;;;;;;1.01;100.00;97134.78;4795255;29;20286;-62
2022/01/09 08:12:23;;;;;;;11.23;6.33;;;;;;;1.15;100.00;97130.50;4798454;29;20497;-63
2022/01/09 08:14:48;;;;;;;11.50;5.90;;;;;;;1.20;100.00;97143.88;4801543;29;20034;-62
2022/01/09 08:17:14;;;;;;;9.67;6.10;;;;;;;1.63;100.00;97143.91;4805990;29;20079;-62
2022/01/09 08:19:40;;;;;;;9.83;5.97;;;;;;;1.90;100.00;97145.75;4801846;29;20486;-63
2022/01/09 08:22:07;;;;;;;11.20;6.43;;;;;;;1.68;100.00;97137.06;4796818;29;20039;-62
2022/01/09 08:24:34;;;;;;;11.60;6.47;;;;;;;2.13;100.00;97148.16;4795516;29;20271;-62
2022/01/09 08:27:00;;;;;;;11.27;6.40;;;;;;;2.48;100.00;97141.09;4804877;29;20854;-64
2022/01/09 08:29:30;;;;;;;18.00;8.27;;;;;;;3.10;100.00;97153.38;4810621;29;20332;-62
2022/01/09 08:31:55;;;;;;;15.63;8.00;;;;;;;2.74;100.00;97140.44;4806148;29;20433;-63
2022/01/09 08:34:21;;;;;;;17.27;9.23;;;;;;;3.38;100.00;97147.97;4805097;29;20279;-63
2022/01/09 08:36:46;;;;;;;21.93;10.93;;;;;;;4.59;100.00;97134.34;4811646;29;20486;-63
2022/01/09 08:39:12;;;;;;;17.87;9.07;;;;;;;3.48;100.00;97151.03;4812953;29;20042;-63
2022/01/09 08:41:39;;;;;;;16.17;8.23;;;;;;;3.49;100.00;97140.28;4811632;29;20069;-63
2022/01/09 08:44:05;;;;;;;15.90;7.50;;;;;;;4.13;100.00;97142.38;4813612;29;20362;-63
2022/01/09 08:46:32;;;;;;;11.37;6.90;;;;;;;5.16;100.00;97137.22;4814682;29;20278;-64
2022/01/09 08:48:59;;;;;;;14.30;7.60;;;;;;;4.48;100.00;97137.63;4810017;29;20385;-63
2022/01/09 08:51:25;;;;;;;15.37;6.90;;;;;;;4.43;100.00;97142.72;4813535;29;20320;-64
2022/01/09 08:53:51;;;;;;;14.10;7.60;;;;;;;4.62;100.00;97147.16;4814545;29;20273;-64
2022/01/09 08:56:20;;;;;;;14.23;7.17;;;;;;;4.44;100.00;97151.47;4812559;29;20275;-63
2022/01/09 08:58:46;;;;;;;12.47;6.93;;;;;;;4.23;100.00;97161.25;4813471;29;20026;-64
2022/01/09 09:01:11;;;;;;;13.67;7.37;;;;;;;4.07;100.00;97174.06;4814322;29;20670;-63
2022/01/09 09:03:40;;;;;;;15.07;7.20;;;;;;;4.08;100.00;97171.22;4811179;29;20034;-64
2022/01/09 09:06:07;;;;;;;14.43;6.80;;;;;;;3.72;100.00;97181.34;4812078;29;20031;-62
2022/01/09 09:08:33;;;;;;;11.50;6.80;;;;;;;3.52;100.00;97190.03;4816367;29;20290;-63
2022/01/09 09:10:59;;;;;;;11.33;6.30;;;;;;;3.12;100.00;97189.09;4822928;29;20276;-62
2022/01/09 09:13:24;;;;;;;13.27;6.60;;;;;;;3.33;100.00;97197.91;4813878;29;20275;-61
2022/01/09 09:15:50;;;;;;;14.63;6.63;;;;;;;3.56;100.00;97191.28;4804560;29;20031;-61
2022/01/09 09:18:16;;;;;;;13.27;6.57;;;;;;;3.48;100.00;97196.72;4804620;29;20035;-63
2022/01/09 09:20:41;;;;;;;14.57;6.93;;;;;;;3.18;100.00;97204.16;4804449;29;20027;-63
2022/01/09 09:23:07;;;;;;;12.87;6.60;;;;;;;2.89;100.00;97214.94;4803822;29;20061;-62
2022/01/09 09:25:32;;;;;;;12.50;6.53;;;;;;;2.64;100.00;97201.44;4804510;29;20035;-62
2022/01/09 09:27:58;;;;;;;12.10;5.47;;;;;;;2.94;100.00;97224.94;4804453;29;20034;-62
2022/01/09 09:30:23;;;;;;;10.67;6.23;;;;;;;2.87;100.00;97219.63;4804576;29;20104;-61
2022/01/09 09:32:49;;;;;;;9.57;6.40;;;;;;;2.83;100.00;97234.22;4804428;29;20457;-61
2022/01/09 09:35:15;;;;;;;12.57;7.97;;;;;;;2.65;100.00;97213.63;4804488;29;20037;-62
2022/01/09 09:37:40;;;;;;;12.87;7.00;;;;;;;3.04;100.00;97220.94;4804472;29;20039;-61
2022/01/09 09:40:08;;;;;;;10.23;5.70;;;;;;;3.15;100.00;97227.47;4804376;29;20031;-62
2022/01/09 09:42:34;;;;;;;7.90;5.30;;;;;;;3.20;100.00;97230.34;4804322;29;20045;-61
2022/01/09 09:45:01;;;;;;;13.67;7.13;;;;;;;3.50;100.00;97229.03;4803672;29;20657;-62
2022/01/09 09:47:28;;;;;;;13.43;6.53;;;;;;;3.69;100.00;97234.59;4807898;29;20069;-61
2022/01/09 09:49:53;;;;;;;15.07;7.47;;;;;;;3.67;100.00;97229.50;4803879;29;20858;-60
2022/01/09 09:52:19;;;;;;;11.50;6.43;;;;;;;3.48;100.00;97235.53;4804099;29;20275;-61
2022/01/09 09:54:47;;;;;;;9.27;5.40;;;;;;;2.91;100.00;97248.06;4804104;29;20037;-61
2022/01/09 09:57:12;;;;;;;11.47;5.53;;;;;;;2.60;100.00;97250.28;4804050;29;20053;-60
2022/01/09 09:59:39;;;;;;;9.57;5.53;;;;;;;2.74;100.00;97259.94;4804042;29;20282;-62
2022/01/09 10:02:12;;;;;;;13.70;7.60;;;;;;;2.99;100.00;97270.84;4802826;29;20035;-62
2022/01/09 10:04:55;;;;;;;;;;;;;;;2.98;100.00;97268.41;4803233;29;20273;-61
2022/01/09 10:07:28;;;;;;;18.73;9.27;;;;;;;2.62;100.00;97274.66;4804205;29;19936;-61
2022/01/09 10:09:55;;;;;;;18.87;9.10;;;;;;;2.43;100.00;97278.75;4803765;29;20286;-61
2022/01/09 10:12:26;;;;;;;16.10;8.00;;;;;;;1.96;100.00;97270.63;4808680;29;20757;-61
2022/01/09 10:14:57;;;;;;;19.57;9.73;;;;;;;1.95;100.00;97285.63;4822034;29;20632;-61
2022/01/09 10:17:24;;;;;;;17.67;9.23;;;;;;;1.80;100.00;97285.66;4822213;29;20796;-61
2022/01/09 10:20:19;;;;;;;19.53;9.33;;;;;;;1.72;100.00;97284.97;4821939;29;20308;-60
2022/01/09 10:22:47;;;;;;;21.80;10.57;;;;;;;1.58;100.00;97291.06;4821845;29;20274;-61
2022/01/09 10:25:24;;;;;;;21.77;11.20;;;;;;;1.56;100.00;97288.63;4822014;29;20282;-61
2022/01/09 10:27:57;;;;;;;19.97;9.93;;;;;;;1.54;100.00;97285.34;4821987;29;20270;-61
2022/01/09 10:30:26;;;;;;;19.45;10.13;;;;;;;1.20;100.00;97299.09;4822277;29;20289;-61
2022/01/09 10:33:08;;;;;;;23.40;11.13;;;;;;;0.99;100.00;97296.38;4821585;29;20041;-60
2022/01/09 10:35:35;;;;;;;28.77;14.40;;;;;;;1.19;100.00;97300.09;4823862;29;20356;-60
2022/01/09 10:38:13;;;;;;;25.50;12.83;;;;;;;1.16;100.00;97297.81;4825028;29;20281;-62
2022/01/09 10:40:43;;;;;;;21.63;11.10;;;;;;;1.23;100.00;97317.16;4839151;29;20278;-59
2022/01/09 10:43:11;;;;;;;31.10;14.53;;;;;;;1.35;100.00;97312.25;4824800;29;20285;-60
2022/01/09 10:45:42;;;;;;;28.77;14.90;;;;;;;1.20;100.00;97320.16;4824768;29;20339;-60
2022/01/09 10:48:11;;;;;;;31.67;14.80;;;;;;;1.22;100.00;97317.34;4824738;29;20294;-61
2022/01/09 10:50:39;;;;;;;30.53;14.83;;;;;;;1.22;100.00;97319.97;4824712;29;20807;-60
2022/01/09 10:53:30;;;;;;;30.53;14.90;;;;;;;0.89;100.00;97314.25;4824804;29;20270;-62
2022/01/09 10:56:19;;;;;;;32.20;15.10;;;;;;;1.17;100.00;97315.25;4824657;29;20266;-61
2022/01/09 10:58:50;;;;;;;30.07;15.90;;;;;;;1.34;100.00;97319.34;4824680;29;20278;-61
2022/01/09 11:01:23;;;;;;;30.10;15.23;;;;;;;1.20;100.00;97322.78;4824636;29;20368;-60
2022/01/09 11:04:00;;;;;;;32.70;15.95;;;;;;;1.14;100.00;97327.97;4824590;29;20322;-60
2022/01/09 11:06:28;;;;;;;30.33;15.07;;;;;;;1.02;100.00;97328.41;4824728;29;20042;-60
2022/01/09 11:08:54;;;;;;;28.07;15.20;;;;;;;1.13;100.00;97331.59;4824329;29;20646;-60
2022/01/09 11:11:31;;;;;;;30.53;15.43;;;;;;;1.12;100.00;97329.94;4824375;29;20270;-61
2022/01/09 11:13:59;;;;;;;35.37;17.07;;;;;;;1.13;100.00;97336.84;4824519;29;20266;-61
2022/01/09 11:16:59;;;;;;;32.20;16.63;;;;;;;0.88;100.00;97334.47;4824304;29;20285;-61
2022/01/09 11:19:20;;;;;;;32.33;17.23;;;;;;;1.01;100.00;97332.03;4823905;29;20286;-61
2022/01/09 11:21:50;;;;;;;36.50;18.33;;;;;;;0.81;100.00;97332.75;4823909;29;20646;-60
2022/01/09 11:24:40;;;;;;;35.53;17.77;;;;;;;0.98;100.00;97337.66;4824310;29;20270;-61